Time;durP1;ratioP1;P1;durP2;ratioP2;P2;SDS_P1;SDS_P2;PMS_P1;PMS_P2;Temp;Humidity;BMP_temperature;BMP_pressure;BME280_temperature;BME280_humidity;BME280_pressure;Samples;Min_cycle;Max_cycle;Signal;HPM_P1;HPM_P2
2023/04/08 00:00:16;;;;;;;24.37;11.13;;;9.10;86.80;;;;;;4994655;28;20187;-74
2023/04/08 00:02:42;;;;;;;27.30;12.67;;;9.10;87.00;;;;;;4991636;28;20237;-74
2023/04/08 00:05:07;;;;;;;21.23;11.73;;;9.20;87.00;;;;;;4989597;28;20465;-73
2023/04/08 00:07:33;;;;;;;25.50;11.77;;;9.20;87.00;;;;;;4989767;28;20187;-71
2023/04/08 00:09:59;;;;;;;26.17;13.07;;;9.20;86.90;;;;;;4992333;28;20206;-71
2023/04/08 00:12:25;;;;;;;25.23;12.43;;;9.20;87.00;;;;;;4992300;28;20468;-74
2023/04/08 00:14:51;;;;;;;24.23;12.23;;;9.20;86.90;;;;;;4989422;28;20290;-74
2023/04/08 00:17:16;;;;;;;25.77;11.70;;;9.10;86.60;;;;;;4985843;28;20187;-73
2023/04/08 00:19:43;;;;;;;27.80;12.33;;;9.10;86.80;;;;;;4995455;28;20190;-72
2023/04/08 00:22:09;;;;;;;29.70;13.87;;;9.00;87.00;;;;;;4984477;28;20262;-72
2023/04/08 00:24:35;;;;;;;21.37;11.93;;;9.00;87.30;;;;;;4985519;28;20540;-73
2023/04/08 00:27:01;;;;;;;22.73;12.13;;;8.90;87.40;;;;;;4991321;28;20913;-71
2023/04/08 00:29:27;;;;;;;26.83;13.33;;;8.80;87.80;;;;;;4995480;28;20210;-72
2023/04/08 00:31:53;;;;;;;27.20;12.60;;;8.80;88.00;;;;;;4987026;28;20472;-71
2023/04/08 00:34:19;;;;;;;23.50;11.37;;;8.80;88.00;;;;;;4987277;28;20467;-72
2023/04/08 00:36:45;;;;;;;23.40;11.97;;;8.80;88.00;;;;;;4990810;28;20186;-71
2023/04/08 00:39:12;;;;;;;24.17;11.70;;;8.80;88.00;;;;;;4994750;28;20250;-72
2023/04/08 00:41:38;;;;;;;20.93;10.67;;;8.80;88.00;;;;;;4994209;28;20917;-72
2023/04/08 00:44:03;;;;;;;24.63;11.43;;;8.80;88.10;;;;;;4989812;28;20457;-72
2023/04/08 00:46:30;;;;;;;21.70;11.77;;;8.80;88.10;;;;;;4995032;28;20222;-73
2023/04/08 00:48:55;;;;;;;22.07;11.30;;;8.80;88.10;;;;;;4994262;28;20217;-72
2023/04/08 00:51:21;;;;;;;24.67;11.90;;;8.80;88.40;;;;;;4992477;28;20426;-72
2023/04/08 00:53:47;;;;;;;26.10;13.17;;;8.90;88.00;;;;;;4995464;28;20238;-73
2023/04/08 00:56:12;;;;;;;21.07;11.40;;;8.80;87.80;;;;;;4997413;28;20190;-71
2023/04/08 00:58:38;;;;;;;23.40;12.23;;;8.80;88.00;;;;;;4994387;28;20189;-70
2023/04/08 01:01:35;;;;;;;21.73;11.33;;;8.80;88.00;;;;;;4993107;28;20186;-72
2023/04/08 01:04:27;;;;;;;27.27;13.67;;;8.90;88.00;;;;;;4986723;28;20548;-71
2023/04/08 01:07:19;;;;;;;27.20;12.67;;;8.70;87.60;;;;;;5000230;28;20515;-72
2023/04/08 01:09:53;;;;;;;25.70;14.33;;;8.70;88.00;;;;;;4993360;28;20537;-70
2023/04/08 01:12:27;;;;;;;28.37;13.90;;;8.70;88.10;;;;;;4995377;28;20417;-70
2023/04/08 01:15:03;;;;;;;21.63;11.90;;;8.60;88.00;;;;;;4992067;28;20465;-71
2023/04/08 01:17:31;;;;;;;27.67;12.90;;;8.60;88.40;;;;;;4996411;28;20418;-70
2023/04/08 01:19:59;;;;;;;27.17;13.37;;;8.70;88.60;;;;;;4994974;28;20434;-71
2023/04/08 01:22:41;;;;;;;27.83;13.30;;;8.70;88.40;;;;;;4995935;28;20425;-71
2023/04/08 01:25:13;;;;;;;25.07;12.07;;;8.70;88.10;;;;;;4993002;28;20973;-71
2023/04/08 01:27:39;;;;;;;26.10;13.30;;;8.70;88.00;;;;;;4994197;28;20418;-71
2023/04/08 01:30:06;;;;;;;24.23;11.97;;;8.60;88.00;;;;;;4995515;28;20495;-71
2023/04/08 01:32:34;;;;;;;23.87;11.57;;;8.60;88.30;;;;;;4992490;28;20179;-70
2023/04/08 01:35:01;;;;;;;28.73;14.30;;;8.50;88.40;;;;;;4991162;28;20458;-73
2023/04/08 01:37:28;;;;;;;21.70;12.20;;;8.50;88.60;;;;;;5000063;28;20417;-72
2023/04/08 01:39:54;;;;;;;23.87;11.90;;;8.50;88.70;;;;;;4997732;28;20433;-69
2023/04/08 01:42:23;;;;;;;22.97;12.57;;;8.50;88.90;;;;;;4991373;28;20421;-71
2023/04/08 01:44:51;;;;;;;26.37;12.27;;;8.60;88.90;;;;;;4989243;28;20596;-70
2023/04/08 01:47:17;;;;;;;22.10;11.67;;;8.60;88.60;;;;;;4985979;28;20438;-72
2023/04/08 01:49:43;;;;;;;24.37;12.17;;;8.60;87.80;;;;;;4991516;28;20477;-70
2023/04/08 01:52:10;;;;;;;24.53;12.43;;;8.60;87.80;;;;;;4990119;28;20452;-70
2023/04/08 01:54:36;;;;;;;20.47;11.20;;;8.60;87.70;;;;;;4989314;28;20465;-71
2023/04/08 01:57:05;;;;;;;23.70;12.93;;;8.70;87.60;;;;;;4991082;28;20859;-72
2023/04/08 01:59:35;;;;;;;24.60;12.83;;;8.70;87.70;;;;;;4989717;28;20422;-69
2023/04/08 02:02:02;;;;;;;22.20;11.60;;;8.80;87.40;;;;;;4986919;28;20421;-70
2023/04/08 02:04:28;;;;;;;22.67;11.43;;;8.70;87.40;;;;;;4985856;28;20523;-73
2023/04/08 02:06:55;;;;;;;25.70;13.50;;;8.70;87.40;;;;;;4990228;28;20449;-72
2023/04/08 02:09:21;;;;;;;27.67;13.70;;;8.60;87.40;;;;;;4986834;28;20723;-71
2023/04/08 02:11:46;;;;;;;25.60;13.37;;;8.60;87.70;;;;;;4996227;28;20418;-70
2023/04/08 02:14:12;;;;;;;26.07;13.00;;;8.60;87.80;;;;;;4987345;28;20583;-69
2023/04/08 02:17:03;;;;;;;21.63;11.30;;;8.60;87.80;;;;;;4986961;28;20189;-71
2023/04/08 02:19:50;;;;;;;25.03;11.83;;;8.60;87.80;;;;;;4992030;28;20186;-71
2023/04/08 02:22:28;;;;;;;26.20;11.87;;;8.70;87.60;;;;;;4986029;28;20438;-71
2023/04/08 02:24:55;;;;;;;23.90;12.30;;;8.60;87.60;;;;;;4989438;28;20473;-70
2023/04/08 02:27:24;;;;;;;26.53;12.77;;;8.50;87.70;;;;;;4989551;28;20453;-72
2023/04/08 02:29:53;;;;;;;24.73;12.87;;;8.50;88.00;;;;;;4991877;28;20477;-72
2023/04/08 02:32:20;;;;;;;28.27;13.00;;;8.40;88.10;;;;;;4992019;28;20460;-70
2023/04/08 02:34:47;;;;;;;32.30;13.60;;;8.40;88.30;;;;;;4990335;28;20461;-72
2023/04/08 02:37:13;;;;;;;29.27;12.67;;;8.40;88.60;;;;;;4991492;28;20436;-71
2023/04/08 02:39:38;;;;;;;25.30;12.83;;;8.40;88.70;;;;;;4992730;28;20561;-71
2023/04/08 02:42:04;;;;;;;27.20;12.33;;;8.40;88.70;;;;;;4992792;28;20241;-72
2023/04/08 02:44:30;;;;;;;29.17;13.43;;;8.40;88.70;;;;;;4990759;28;20209;-71
2023/04/08 02:46:56;;;;;;;28.40;14.23;;;8.40;88.70;;;;;;4992744;28;20422;-71
2023/04/08 02:49:21;;;;;;;29.00;13.07;;;8.30;88.90;;;;;;4993251;28;20241;-71
2023/04/08 02:51:47;;;;;;;29.50;14.50;;;8.30;88.90;;;;;;4993055;28;20187;-72
2023/04/08 02:54:12;;;;;;;32.13;14.30;;;8.30;89.00;;;;;;4992354;28;20201;-71
2023/04/08 02:56:38;;;;;;;29.63;14.83;;;8.20;88.90;;;;;;4993325;28;20187;-71
2023/04/08 02:59:03;;;;;;;33.13;16.80;;;8.30;89.20;;;;;;4996046;28;20187;-72
2023/04/08 03:01:30;;;;;;;30.87;14.37;;;8.20;89.30;;;;;;4992339;28;20635;-71
2023/04/08 03:03:55;;;;;;;28.83;14.40;;;8.20;89.30;;;;;;4993010;28;20206;-71
2023/04/08 03:06:21;;;;;;;33.97;14.17;;;8.20;89.20;;;;;;4997617;28;20984;-70
2023/04/08 03:08:46;;;;;;;41.50;16.57;;;8.20;89.00;;;;;;4998615;28;20699;-72
2023/04/08 03:11:12;;;;;;;31.67;15.60;;;8.20;89.30;;;;;;4998531;28;20526;-72
2023/04/08 03:13:37;;;;;;;35.70;15.90;;;8.20;89.30;;;;;;5002137;28;20179;-73
2023/04/08 03:16:03;;;;;;;33.63;15.70;;;8.20;89.30;;;;;;4997941;28;20178;-70
2023/04/08 03:18:29;;;;;;;35.90;15.00;;;8.20;89.30;;;;;;5006408;28;20183;-72
2023/04/08 03:20:55;;;;;;;33.40;15.90;;;8.20;88.90;;;;;;4995335;28;20190;-71
2023/04/08 03:23:20;;;;;;;32.03;14.10;;;8.10;89.00;;;;;;4996277;28;20765;-71
2023/04/08 03:25:46;;;;;;;37.23;16.20;;;8.20;89.20;;;;;;4988984;28;20238;-70
2023/04/08 03:28:11;;;;;;;32.40;15.47;;;8.10;89.00;;;;;;4992547;28;20206;-71
2023/04/08 03:30:37;;;;;;;33.07;15.53;;;8.20;89.20;;;;;;4995168;28;20186;-72
2023/04/08 03:33:06;;;;;;;34.17;14.97;;;8.20;89.00;;;;;;4994282;28;20650;-71
2023/04/08 03:35:32;;;;;;;35.63;15.87;;;8.20;88.70;;;;;;4993545;28;20206;-70
2023/04/08 03:37:58;;;;;;;30.57;14.17;;;8.20;88.90;;;;;;4994240;28;20790;-72
2023/04/08 03:40:23;;;;;;;30.90;14.07;;;8.10;88.70;;;;;;4996130;28;20410;-70
2023/04/08 03:42:49;;;;;;;32.40;14.47;;;8.20;88.90;;;;;;4995522;28;20187;-70
2023/04/08 03:45:15;;;;;;;28.57;13.73;;;8.20;88.70;;;;;;5001244;28;20248;-71
2023/04/08 03:47:40;;;;;;;29.37;14.83;;;8.20;88.60;;;;;;4994676;28;20175;-72
2023/04/08 03:50:06;;;;;;;31.67;15.23;;;8.20;88.40;;;;;;4991795;28;20239;-72
2023/04/08 03:52:32;;;;;;;32.67;14.07;;;8.20;88.30;;;;;;4996260;28;20185;-71
2023/04/08 03:54:57;;;;;;;32.27;15.10;;;8.20;88.30;;;;;;4997523;28;20465;-72
2023/04/08 03:57:23;;;;;;;28.03;13.23;;;8.20;88.40;;;;;;4994404;28;20197;-70
2023/04/08 03:59:49;;;;;;;30.37;13.47;;;8.20;88.10;;;;;;4998461;28;20277;-70
2023/04/08 04:02:14;;;;;;;31.47;14.10;;;8.20;88.10;;;;;;4994447;28;20218;-71
2023/04/08 04:04:40;;;;;;;29.80;13.00;;;8.30;88.10;;;;;;4990472;28;20293;-72
2023/04/08 04:07:05;;;;;;;32.77;13.13;;;8.30;88.00;;;;;;4991367;28;20318;-73
2023/04/08 04:09:31;;;;;;;27.83;13.53;;;8.30;87.70;;;;;;4997859;28;20221;-70
2023/04/08 04:11:57;;;;;;;31.47;14.00;;;8.30;87.70;;;;;;4995108;28;20187;-72
2023/04/08 04:14:22;;;;;;;32.97;15.70;;;8.30;87.70;;;;;;4991738;28;20282;-70
2023/04/08 04:16:48;;;;;;;33.87;14.20;;;8.20;87.70;;;;;;4995997;28;20191;-72
2023/04/08 04:19:13;;;;;;;29.40;13.27;;;8.10;88.10;;;;;;5001506;28;20281;-72
2023/04/08 04:21:39;;;;;;;32.93;14.67;;;8.10;88.10;;;;;;4995257;28;20203;-71
2023/04/08 04:24:04;;;;;;;33.73;15.10;;;8.10;88.40;;;;;;4996339;28;20239;-70
2023/04/08 04:26:30;;;;;;;35.10;15.53;;;8.00;88.40;;;;;;4996664;28;20194;-72
2023/04/08 04:28:56;;;;;;;30.67;14.00;;;8.00;88.90;;;;;;4995697;28;20715;-72
2023/04/08 04:31:25;;;;;;;30.77;14.40;;;8.00;88.90;;;;;;4991764;28;20229;-71
2023/04/08 04:33:50;;;;;;;30.77;14.53;;;8.00;89.00;;;;;;4988962;28;20260;-70
2023/04/08 04:36:17;;;;;;;43.10;16.93;;;7.90;89.00;;;;;;4990092;28;20456;-73
2023/04/08 04:38:43;;;;;;;33.43;15.30;;;8.00;89.20;;;;;;4986151;28;20739;-73
2023/04/08 04:41:09;;;;;;;34.83;15.10;;;7.90;89.20;;;;;;4992399;28;20421;-73
2023/04/08 04:43:34;;;;;;;35.80;15.87;;;7.90;89.30;;;;;;4989669;28;20457;-71
2023/04/08 04:46:01;;;;;;;36.30;15.87;;;7.90;89.50;;;;;;4989332;28;20240;-72
2023/04/08 04:48:26;;;;;;;42.30;17.03;;;7.70;89.60;;;;;;4991557;28;20213;-70
2023/04/08 04:50:56;;;;;;;33.80;16.40;;;7.60;90.10;;;;;;4990394;28;20418;-72
2023/04/08 04:53:22;;;;;;;40.10;16.03;;;7.70;90.30;;;;;;4991489;28;20189;-71
2023/04/08 04:55:49;;;;;;;35.77;15.70;;;7.70;90.30;;;;;;4988495;28;20470;-72
2023/04/08 04:58:15;;;;;;;35.67;16.80;;;7.70;90.30;;;;;;4991213;28;20186;-70
2023/04/08 05:00:40;;;;;;;36.47;15.63;;;7.70;90.30;;;;;;4992092;28;20657;-72
2023/04/08 05:03:06;;;;;;;33.60;17.40;;;7.70;90.30;;;;;;4992033;28;20218;-73
2023/04/08 05:05:32;;;;;;;38.37;17.27;;;7.60;90.30;;;;;;4988678;28;20955;-72
2023/04/08 05:07:57;;;;;;;37.43;17.10;;;7.60;90.40;;;;;;4991214;28;20186;-71
2023/04/08 05:10:23;;;;;;;43.87;16.93;;;7.60;90.60;;;;;;4991555;28;20200;-70
2023/04/08 05:12:49;;;;;;;38.60;18.10;;;7.70;90.60;;;;;;4988905;28;20577;-71
2023/04/08 05:15:14;;;;;;;35.77;16.43;;;7.70;90.50;;;;;;4985373;28;20222;-71
2023/04/08 05:17:40;;;;;;;39.70;16.60;;;7.80;90.60;;;;;;4993064;28;20182;-73
2023/04/08 05:20:06;;;;;;;44.20;19.23;;;7.80;90.50;;;;;;4992463;28;20618;-71
2023/04/08 05:22:31;;;;;;;40.73;17.03;;;7.80;90.40;;;;;;4990957;28;20193;-71
2023/04/08 05:24:57;;;;;;;39.47;17.77;;;7.80;90.20;;;;;;4988434;28;20492;-71
2023/04/08 05:27:23;;;;;;;33.20;18.20;;;7.80;90.20;;;;;;4987489;28;20198;-71
2023/04/08 05:29:48;;;;;;;32.97;16.00;;;7.90;90.20;;;;;;4991424;28;20256;-72
2023/04/08 05:32:15;;;;;;;40.97;17.97;;;7.80;90.00;;;;;;4991932;28;20252;-72
2023/04/08 05:34:41;;;;;;;40.60;18.93;;;7.80;90.00;;;;;;4987512;28;20206;-71
2023/04/08 05:37:07;;;;;;;42.03;17.30;;;7.80;90.00;;;;;;4991265;28;20480;-72
2023/04/08 05:39:32;;;;;;;42.50;17.83;;;7.80;90.00;;;;;;4995153;28;20190;-71
2023/04/08 05:41:58;;;;;;;41.93;19.13;;;7.90;90.10;;;;;;4994628;28;20190;-71
2023/04/08 05:44:23;;;;;;;33.93;17.40;;;7.90;90.00;;;;;;4992636;28;20230;-71
2023/04/08 05:46:49;;;;;;;35.30;17.37;;;8.00;90.00;;;;;;4996882;28;20189;-72
2023/04/08 05:49:16;;;;;;;35.77;16.83;;;8.10;89.70;;;;;;4998182;28;20559;-71
2023/04/08 05:51:42;;;;;;;42.83;18.63;;;8.10;89.60;;;;;;4996817;28;20182;-72
2023/04/08 05:54:08;;;;;;;40.27;17.50;;;8.10;89.30;;;;;;4990451;28;20461;-73
2023/04/08 05:56:33;;;;;;;32.50;16.33;;;8.10;89.30;;;;;;4991671;28;20224;-71
2023/04/08 05:58:59;;;;;;;44.47;18.87;;;8.20;89.30;;;;;;4993357;28;20849;-71
2023/04/08 06:01:25;;;;;;;44.37;18.87;;;8.30;89.00;;;;;;4990799;28;20202;-72
2023/04/08 06:03:57;;;;;;;35.73;17.80;;;8.30;88.60;;;;;;4988770;28;20481;-70
2023/04/08 06:06:26;;;;;;;38.13;17.43;;;8.20;88.40;;;;;;4991412;28;20203;-71
2023/04/08 06:08:52;;;;;;;35.03;16.47;;;8.20;88.30;;;;;;4984859;28;20466;-70
2023/04/08 06:11:17;;;;;;;35.30;16.30;;;8.20;88.40;;;;;;4990363;28;20409;-70
2023/04/08 06:13:44;;;;;;;38.63;16.60;;;8.20;88.40;;;;;;4987400;28;20230;-73
2023/04/08 06:16:14;;;;;;;38.50;17.80;;;8.20;88.40;;;;;;4992347;28;20857;-72
2023/04/08 06:18:40;;;;;;;40.87;17.50;;;8.20;88.30;;;;;;4991917;28;20192;-72
2023/04/08 06:21:06;;;;;;;39.07;17.20;;;8.20;88.40;;;;;;4992988;28;20548;-71
2023/04/08 06:23:31;;;;;;;36.00;17.73;;;8.20;88.40;;;;;;4993877;28;20281;-72
2023/04/08 06:25:57;;;;;;;38.20;16.93;;;8.30;88.30;;;;;;4990940;28;20198;-71
2023/04/08 06:28:23;;;;;;;39.10;18.30;;;8.20;88.10;;;;;;4986695;28;20268;-70
2023/04/08 06:30:49;;;;;;;40.70;17.37;;;8.30;88.30;;;;;;4992806;28;20190;-73
2023/04/08 06:33:14;;;;;;;36.77;16.73;;;8.40;88.60;;;;;;4995698;28;20206;-73
2023/04/08 06:35:40;;;;;;;33.43;15.40;;;8.40;88.30;;;;;;4997756;28;20195;-72
2023/04/08 06:38:06;;;;;;;34.07;16.73;;;8.40;87.70;;;;;;5005350;28;20682;-74
2023/04/08 06:40:31;;;;;;;37.30;17.23;;;8.40;87.60;;;;;;5010804;28;20501;-72
2023/04/08 06:42:57;;;;;;;31.03;15.80;;;8.40;87.40;;;;;;5003821;28;20217;-73
2023/04/08 06:45:23;;;;;;;30.57;15.50;;;8.40;87.30;;;;;;5000179;28;20816;-71
2023/04/08 06:47:48;;;;;;;35.20;17.00;;;8.40;87.40;;;;;;4999610;28;20190;-72
2023/04/08 06:50:14;;;;;;;35.63;17.00;;;8.50;87.40;;;;;;4997607;28;20757;-72
2023/04/08 06:52:39;;;;;;;31.30;14.77;;;8.50;87.40;;;;;;5003724;28;20183;-70
2023/04/08 06:55:05;;;;;;;36.37;16.03;;;8.50;87.00;;;;;;4996340;28;20210;-72
2023/04/08 06:57:31;;;;;;;33.40;15.90;;;8.50;87.00;;;;;;5002196;28;20268;-70
2023/04/08 06:59:56;;;;;;;30.67;15.50;;;8.40;86.80;;;;;;4998960;28;20182;-71
2023/04/08 07:02:22;;;;;;;32.40;15.13;;;8.40;87.00;;;;;;4998258;28;20672;-71
2023/04/08 07:04:48;;;;;;;28.47;13.20;;;8.40;87.10;;;;;;4993588;28;20202;-72
2023/04/08 07:07:14;;;;;;;29.43;14.80;;;8.40;87.10;;;;;;4995322;28;20269;-70
2023/04/08 07:09:42;;;;;;;32.03;14.67;;;8.50;87.10;;;;;;4996415;28;20206;-71
2023/04/08 07:12:07;;;;;;;35.27;16.20;;;8.40;86.50;;;;;;5004091;28;20417;-74
2023/04/08 07:14:33;;;;;;;31.87;15.27;;;8.40;86.90;;;;;;5000210;28;20483;-72
2023/04/08 07:16:58;;;;;;;34.20;16.00;;;8.40;87.00;;;;;;4994571;28;20186;-71
2023/04/08 07:19:24;;;;;;;31.80;16.60;;;8.50;86.90;;;;;;4994242;28;20244;-73
2023/04/08 07:21:51;;;;;;;32.37;14.33;;;8.50;87.00;;;;;;4992318;28;20320;-72
2023/04/08 07:24:17;;;;;;;33.83;15.17;;;8.60;86.80;;;;;;4989564;28;20702;-70
2023/04/08 07:26:43;;;;;;;29.00;13.60;;;8.60;86.20;;;;;;4989678;28;20426;-73
2023/04/08 07:29:09;;;;;;;29.07;15.27;;;8.60;85.90;;;;;;4992198;28;20504;-70
2023/04/08 07:31:35;;;;;;;34.10;14.57;;;8.50;86.00;;;;;;4995478;28;20434;-74
2023/04/08 07:34:00;;;;;;;26.67;13.63;;;8.50;86.50;;;;;;4992218;28;20769;-72
2023/04/08 07:36:27;;;;;;;30.20;13.30;;;8.60;86.60;;;;;;4993613;28;20663;-73
2023/04/08 07:38:52;;;;;;;30.10;13.90;;;8.60;85.90;;;;;;4993390;28;20282;-71
2023/04/08 07:41:18;;;;;;;25.17;13.30;;;8.70;85.70;;;;;;4993296;28;20517;-72
2023/04/08 07:43:44;;;;;;;22.93;12.60;;;8.80;85.20;;;;;;4990971;28;20187;-72
2023/04/08 07:46:09;;;;;;;22.30;12.13;;;8.90;84.30;;;;;;4994444;28;20186;-73
2023/04/08 07:48:35;;;;;;;25.70;12.80;;;9.10;84.00;;;;;;4999513;28;20214;-71
2023/04/08 07:51:05;;;;;;;27.50;13.03;;;9.10;82.70;;;;;;4995757;28;20187;-72
2023/04/08 07:53:31;;;;;;;22.80;11.70;;;9.20;82.50;;;;;;4995829;28;20216;-73
2023/04/08 07:55:56;;;;;;;29.00;13.27;;;9.20;82.20;;;;;;4993719;28;20461;-73
2023/04/08 07:58:22;;;;;;;24.53;13.00;;;9.30;82.70;;;;;;4997462;28;20186;-72
2023/04/08 08:00:48;;;;;;;22.53;12.47;;;9.30;81.40;;;;;;4991471;28;20233;-72
2023/04/08 08:03:13;;;;;;;23.57;12.80;;;9.20;80.60;;;;;;4994901;28;20422;-72
2023/04/08 08:05:39;;;;;;;21.67;12.17;;;9.30;81.40;;;;;;4991905;28;20285;-73
2023/04/08 08:08:06;;;;;;;24.60;12.80;;;9.30;80.90;;;;;;4997845;28;20262;-73
2023/04/08 08:10:32;;;;;;;21.83;11.60;;;9.50;81.20;;;;;;4996029;28;20273;-73
2023/04/08 08:12:58;;;;;;;22.43;11.60;;;9.70;80.60;;;;;;4997950;28;20425;-73
2023/04/08 08:15:24;;;;;;;23.90;11.13;;;9.90;79.70;;;;;;4989042;28;20485;-73
2023/04/08 08:17:49;;;;;;;22.13;12.27;;;10.00;78.30;;;;;;4991872;28;20277;-73
2023/04/08 08:20:15;;;;;;;21.87;12.13;;;10.00;78.40;;;;;;4993757;28;20183;-72
2023/04/08 08:22:41;;;;;;;22.67;13.20;;;10.00;77.80;;;;;;4993037;28;20182;-72
2023/04/08 08:25:08;;;;;;;23.47;13.67;;;10.00;78.10;;;;;;4988811;28;20499;-72
2023/04/08 08:27:34;;;;;;;24.43;13.30;;;9.90;78.30;;;;;;4995085;28;20658;-72
2023/04/08 08:29:59;;;;;;;23.83;12.83;;;9.90;78.70;;;;;;4994331;28;20458;-72
2023/04/08 08:32:26;;;;;;;25.10;13.07;;;9.70;78.30;;;;;;4989089;28;20191;-72
2023/04/08 08:34:51;;;;;;;25.13;13.03;;;9.80;78.70;;;;;;4985076;28;20217;-73
2023/04/08 08:37:17;;;;;;;23.33;12.70;;;9.80;79.00;;;;;;4992412;28;20422;-75
2023/04/08 08:39:43;;;;;;;25.47;14.07;;;10.00;78.60;;;;;;4996682;28;20183;-75
2023/04/08 08:42:38;;;;;;;26.43;14.00;;;10.20;77.70;;;;;;4995920;28;20187;-73
2023/04/08 08:45:06;;;;;;;25.87;13.63;;;10.30;77.30;;;;;;4967740;28;20218;-74
2023/04/08 08:47:31;;;;;;;25.03;13.63;;;10.30;77.30;;;;;;4969690;28;20426;-75
2023/04/08 08:49:57;;;;;;;25.77;13.63;;;10.40;77.00;;;;;;4973502;28;20669;-75
2023/04/08 08:52:23;;;;;;;24.97;13.80;;;10.30;76.70;;;;;;4974783;28;20222;-72
2023/04/08 08:54:56;;;;;;;23.33;14.50;;;10.30;76.50;;;;;;4969354;28;20307;-72
2023/04/08 08:57:22;;;;;;;21.67;12.40;;;10.40;76.70;;;;;;4970219;28;20586;-71
2023/04/08 08:59:48;;;;;;;25.33;14.27;;;10.60;76.10;;;;;;4972406;28;20442;-72
2023/04/08 09:02:28;;;;;;;25.73;13.47;;;10.60;75.20;;;;;;4972106;28;20202;-73
2023/04/08 09:05:02;;;;;;;22.37;14.50;;;10.70;74.60;;;;;;4967709;28;20210;-73
2023/04/08 09:07:30;;;;;;;26.03;14.53;;;10.70;74.00;;;;;;4970627;28;21307;-72
2023/04/08 09:09:58;;;;;;;24.27;14.00;;;10.60;74.30;;;;;;4968209;28;20470;-72
2023/04/08 09:12:26;;;;;;;25.80;13.87;;;10.40;74.50;;;;;;4970678;28;20426;-72
2023/04/08 09:15:10;;;;;;;25.53;14.13;;;10.60;74.80;;;;;;4969939;28;20481;-72
2023/04/08 09:17:38;;;;;;;24.97;15.20;;;10.70;73.70;;;;;;4970368;28;20433;-74
2023/04/08 09:20:11;;;;;;;24.40;14.60;;;10.60;73.50;;;;;;4974500;28;20431;-73
2023/04/08 09:22:57;;;;;;;23.27;13.37;;;10.70;73.70;;;;;;4999154;28;20441;-74
2023/04/08 09:25:31;;;;;;;23.90;14.27;;;10.80;73.60;;;;;;4996930;28;20485;-74
2023/04/08 09:27:57;;;;;;;26.53;15.20;;;10.80;72.90;;;;;;5000409;28;20433;-75
2023/04/08 09:30:24;;;;;;;24.70;14.53;;;10.90;73.00;;;;;;4995544;28;20468;-74
2023/04/08 09:32:52;;;;;;;24.50;12.87;;;11.10;72.30;;;;;;4996114;28;20225;-74
2023/04/08 09:35:19;;;;;;;25.50;14.50;;;11.10;69.70;;;;;;4991438;28;20484;-75
2023/04/08 09:37:45;;;;;;;25.30;13.47;;;11.20;69.70;;;;;;4997583;28;20476;-73
2023/04/08 09:40:12;;;;;;;24.23;13.83;;;11.30;70.40;;;;;;4996766;28;20428;-75
2023/04/08 09:42:42;;;;;;;23.73;14.07;;;11.20;69.10;;;;;;4998938;28;20472;-74
2023/04/08 09:45:09;;;;;;;27.20;13.07;;;11.30;69.10;;;;;;4991705;28;20469;-74
2023/04/08 09:47:47;;;;;;;22.57;13.80;;;11.50;68.80;;;;;;4999388;28;20425;-72
2023/04/08 09:50:14;;;;;;;24.10;13.17;;;11.70;68.30;;;;;;4989754;28;20556;-73
2023/04/08 09:52:45;;;;;;;23.80;14.10;;;11.90;67.30;;;;;;4998633;28;20489;-72
2023/04/08 09:55:13;;;;;;;21.67;13.07;;;11.90;66.40;;;;;;4992654;28;20716;-72
2023/04/08 09:57:54;;;;;;;23.30;13.20;;;12.00;66.90;;;;;;5005243;28;20413;-73
2023/04/08 10:00:23;;;;;;;23.80;14.33;;;12.00;65.70;;;;;;5002368;28;20976;-73
2023/04/08 10:02:59;;;;;;;24.50;14.10;;;11.60;65.70;;;;;;5001855;28;20437;-72
2023/04/08 10:05:26;;;;;;;22.57;12.83;;;11.60;64.70;;;;;;4997341;28;20554;-74
2023/04/08 10:07:54;;;;;;;24.47;13.60;;;11.70;64.70;;;;;;4984683;28;20516;-72
2023/04/08 10:10:21;;;;;;;26.97;14.50;;;11.80;63.90;;;;;;4993394;28;21799;-73
2023/04/08 10:12:48;;;;;;;21.60;13.30;;;12.00;63.90;;;;;;4992087;28;20417;-72
2023/04/08 10:15:24;;;;;;;22.03;12.83;;;12.20;63.20;;;;;;4990716;28;20466;-73
2023/04/08 10:17:54;;;;;;;16.57;12.37;;;12.40;63.10;;;;;;4989129;28;20444;-72
2023/04/08 10:20:35;;;;;;;27.20;14.27;;;12.10;62.90;;;;;;4987899;28;20428;-73
2023/04/08 10:23:05;;;;;;;24.67;14.27;;;12.00;63.10;;;;;;4982589;28;20500;-72
2023/04/08 10:25:37;;;;;;;27.27;14.70;;;11.80;62.50;;;;;;4990494;28;20457;-71
2023/04/08 10:28:12;;;;;;;24.87;14.20;;;11.80;63.70;;;;;;4993430;28;20429;-73
2023/04/08 10:30:41;;;;;;;22.00;13.27;;;11.80;63.20;;;;;;4987906;28;20417;-72
2023/04/08 10:33:18;;;;;;;23.10;15.37;;;11.90;62.90;;;;;;4989569;28;20991;-71
2023/04/08 10:35:47;;;;;;;23.50;13.73;;;11.70;63.90;;;;;;4986435;28;20504;-72
2023/04/08 10:38:14;;;;;;;21.33;13.77;;;11.60;64.10;;;;;;4990659;28;20426;-74
2023/04/08 10:40:41;;;;;;;25.00;14.80;;;11.60;64.50;;;;;;4990439;28;20512;-74
2023/04/08 10:43:11;;;;;;;21.63;13.67;;;11.60;64.10;;;;;;4997204;28;20422;-71
2023/04/08 10:45:41;;;;;;;22.50;14.23;;;11.40;64.40;;;;;;4989517;28;20461;-72
2023/04/08 10:48:21;;;;;;;26.30;14.47;;;11.40;64.40;;;;;;4991543;28;20429;-74
2023/04/08 10:51:05;;;;;;;23.60;15.30;;;11.40;64.50;;;;;;4984917;28;20472;-72
2023/04/08 10:53:35;;;;;;;21.63;13.53;;;11.40;64.70;;;;;;4991289;28;20517;-74
2023/04/08 10:56:07;;;;;;;24.93;14.30;;;11.40;65.00;;;;;;4986925;28;20441;-74
2023/04/08 10:58:33;;;;;;;20.30;13.20;;;11.30;64.80;;;;;;4987648;28;20450;-72
2023/04/08 11:01:08;;;;;;;25.83;14.10;;;11.30;65.30;;;;;;4991032;28;20452;-74
2023/04/08 11:03:34;;;;;;;24.37;14.73;;;11.30;65.00;;;;;;4988194;28;20429;-72
2023/04/08 11:06:01;;;;;;;21.07;13.90;;;11.30;65.00;;;;;;4987645;28;21302;-72
2023/04/08 11:08:31;;;;;;;24.63;14.60;;;11.30;65.10;;;;;;4989434;28;20515;-75
2023/04/08 11:10:57;;;;;;;22.40;13.87;;;11.30;62.60;;;;;;4993188;28;20884;-73
2023/04/08 11:13:23;;;;;;;22.60;13.70;;;11.20;62.80;;;;;;4991054;28;20430;-73
2023/04/08 11:15:49;;;;;;;20.67;13.03;;;11.30;62.30;;;;;;4986901;28;20527;-73
2023/04/08 11:18:15;;;;;;;18.97;11.80;;;11.40;61.30;;;;;;4986025;28;20194;-73
2023/04/08 11:20:43;;;;;;;24.17;13.83;;;11.30;61.20;;;;;;4991764;28;20433;-73
2023/04/08 11:23:16;;;;;;;20.97;12.63;;;11.20;62.00;;;;;;4993292;28;20595;-71
2023/04/08 11:25:43;;;;;;;21.30;13.07;;;11.30;62.60;;;;;;4996331;28;20515;-72
2023/04/08 11:28:09;;;;;;;21.93;13.73;;;11.30;62.60;;;;;;4993877;28;20428;-73
2023/04/08 11:30:35;;;;;;;19.60;13.10;;;11.40;62.30;;;;;;4995525;28;20425;-74
2023/04/08 11:33:00;;;;;;;26.00;13.63;;;11.50;62.50;;;;;;4993990;28;20476;-74
2023/04/08 11:35:30;;;;;;;22.07;13.00;;;11.40;61.70;;;;;;4990430;28;21264;-73
2023/04/08 11:37:56;;;;;;;22.83;12.67;;;11.50;61.00;;;;;;4996596;28;20553;-73
2023/04/08 11:40:23;;;;;;;22.47;13.00;;;11.40;60.70;;;;;;4994862;28;20434;-73
2023/04/08 11:42:50;;;;;;;25.20;14.77;;;11.20;61.30;;;;;;5001036;28;20437;-73
2023/04/08 11:45:17;;;;;;;19.43;12.00;;;11.30;61.90;;;;;;4993414;28;20459;-75
2023/04/08 11:47:43;;;;;;;24.60;12.80;;;11.20;62.20;;;;;;4995012;28;20804;-73
2023/04/08 11:50:09;;;;;;;20.83;13.70;;;11.20;62.80;;;;;;4995923;28;20917;-72
2023/04/08 11:52:41;;;;;;;23.07;13.73;;;11.30;62.90;;;;;;4995423;28;20477;-71
2023/04/08 11:55:27;;;;;;;19.37;11.93;;;11.40;62.50;;;;;;4991263;28;20564;-72
2023/04/08 11:57:53;;;;;;;23.57;13.87;;;11.50;62.80;;;;;;4994797;28;20446;-72
2023/04/08 12:00:20;;;;;;;21.50;13.10;;;11.70;62.30;;;;;;4993739;28;20754;-73
2023/04/08 12:02:46;;;;;;;27.07;14.10;;;11.60;61.60;;;;;;4996090;28;20433;-72
2023/04/08 12:05:13;;;;;;;25.43;13.13;;;11.60;61.70;;;;;;4990195;28;20539;-74
2023/04/08 12:07:38;;;;;;;21.30;13.60;;;11.50;62.00;;;;;;4992619;28;20956;-72
2023/04/08 12:10:05;;;;;;;20.40;13.23;;;11.50;62.60;;;;;;4994701;28;20557;-72
2023/04/08 12:12:30;;;;;;;24.33;12.37;;;11.50;62.80;;;;;;4993326;28;20260;-72
2023/04/08 12:14:56;;;;;;;24.10;13.63;;;11.50;63.40;;;;;;4987957;28;20874;-73
2023/04/08 12:17:22;;;;;;;21.50;13.37;;;11.60;63.40;;;;;;4992203;28;20197;-73
2023/04/08 12:19:47;;;;;;;23.70;14.43;;;11.50;63.80;;;;;;4993200;28;20522;-74
2023/04/08 12:22:13;;;;;;;24.90;14.77;;;11.60;64.50;;;;;;4993157;28;20626;-71
2023/04/08 12:24:39;;;;;;;21.00;13.30;;;11.30;64.20;;;;;;4988893;28;20287;-73
2023/04/08 12:27:04;;;;;;;21.03;12.93;;;11.40;64.50;;;;;;4993508;28;20190;-73
2023/04/08 12:29:30;;;;;;;22.60;13.57;;;11.50;64.20;;;;;;4993428;28;20296;-71
2023/04/08 12:31:57;;;;;;;23.40;14.10;;;11.70;63.80;;;;;;4999527;28;20201;-73
2023/04/08 12:34:22;;;;;;;17.33;12.10;;;11.80;62.50;;;;;;4991334;28;20507;-71